METAR ET TAF INFORMATION
METAR FOR EKVG
ADDS - METARS form results

(0037 UTC 21 July 2019)
Data provider http://aviationweather.gov/metar/data/
 
METAR text: EKVG 210020Z AUTO 13005KT 5000 -RA OVC004/// 11/11 Q1004
Conditions at: EKVG (SORVAAG/VAGAR , DK) observed 0020 UTC 21 July 2019
Temperature: 11.0°C (52°F)
Dewpoint: 11.0°C (52°F) [RH = 100%]
Pressure (altimeter): 29.65 inches Hg (1004.0 mb)
Winds: from the SE (130 degrees) at 6 MPH (5 knots; 2.6 m/s)
Visibility: 3 miles ( 5 km)
Ceiling: 400 feet AGL
Clouds: overcast cloud deck at 400 feet AGL
Weather: -RA  (light rain)

METAR text: EKVG 202350Z AUTO 14004KT 9000 OVC003/// 11/11 Q1004
Conditions at: EKVG (SORVAAG/VAGAR , DK) observed 2350 UTC 20 July 2019
Temperature: 11.0°C (52°F)
Dewpoint: 11.0°C (52°F) [RH = 100%]
Pressure (altimeter): 29.65 inches Hg (1004.0 mb)
Winds: from the SE (140 degrees) at 5 MPH (4 knots; 2.1 m/s)
Visibility: 6 miles ( 9 km)
Ceiling: 300 feet AGL
Clouds: overcast cloud deck at 300 feet AGL
Weather: no significant weather observed at this time

Forecast for: EKVG (SORVAAG/VAGAR , DK)
Text: TAF EKVG 201428Z 2015/2020 12010KT 9999 SCT005 BKN015
Forecast period: 1500 to 2000 UTC 20 July 2019
Forecast type: FROM: standard forecast or significant change
Winds: from the ESE (120 degrees) at 12 MPH (10 knots; 5.1 m/s)
Visibility: 6 or more miles 10+ km)
Ceiling: 1500 feet AGL
Clouds: scattered clouds at 500 feet AGL
broken clouds at 1500 feet AGL
Weather: no significant weather forecast for this period
Text: TEMPO 2017/2020 2500 -RADZ BR BKN004
Forecast period: 1700 to 2000 UTC 20 July 2019
Forecast type: TEMPORARY: The following changes expected for less than half the time period
Visibility: 1.55 miles (2.49 km)
Ceiling: 400 feet AGL
Clouds: broken clouds at 400 feet AGL
Weather: -RA -DZ BR  (light rain, light drizzle, mist)

 AÉROPORT DE AÉROPORT

 INFORMATIONS DE PISTE
Piste 13 Longueur de la piste 5902 ft Largeur de la piste 98 ft
Élévation de la piste 268 ft Seuil de la piste déplacés 0 ft Runway heading 118
Piste 31 Longueur de la piste 5902 ft Largeur de la piste 98 ft
Élévation de la piste 252 ft Seuil de la piste déplacés 0 ft Runway heading 298

 AÉROPORT FRÉQUENCES
Type AFIS Nom AFIS Féquence 124.85 MHZ

 SIDA DE NAVIGATION
Type NDB Nom Myggenes Féquence 337 KHZ
Type NDB Nom Nolso Féquence 404 KHZ
Type NDB Nom Vagar Féquence 348 KHZ



Powered by Virtual Airlines Manager [v2.6.2]